sensor_id;sensor_type;location;lat;lon;timestamp;P1;durP1;ratioP1;P2;durP2;ratioP2
10418;SDS011;5256;48.728;9.140;2023-02-15T00:02:12;1.00;;;1.00;;
10418;SDS011;5256;48.728;9.140;2023-02-15T00:04:38;1.10;;;1.10;;
10418;SDS011;5256;48.728;9.140;2023-02-15T00:07:16;1.07;;;1.07;;
10418;SDS011;5256;48.728;9.140;2023-02-15T00:09:44;0.90;;;0.90;;
10418;SDS011;5256;48.728;9.140;2023-02-15T00:12:13;1.00;;;1.00;;
10418;SDS011;5256;48.728;9.140;2023-02-15T00:14:40;1.00;;;1.00;;
10418;SDS011;5256;48.728;9.140;2023-02-15T00:17:07;1.07;;;1.07;;
10418;SDS011;5256;48.728;9.140;2023-02-15T00:19:32;1.00;;;1.00;;
10418;SDS011;5256;48.728;9.140;2023-02-15T00:21:58;1.00;;;1.00;;
10418;SDS011;5256;48.728;9.140;2023-02-15T00:24:25;0.90;;;0.90;;
10418;SDS011;5256;48.728;9.140;2023-02-15T00:26:50;1.00;;;1.00;;
10418;SDS011;5256;48.728;9.140;2023-02-15T00:29:16;1.00;;;1.00;;
10418;SDS011;5256;48.728;9.140;2023-02-15T00:31:43;0.70;;;0.70;;
10418;SDS011;5256;48.728;9.140;2023-02-15T00:34:13;1.00;;;1.00;;
10418;SDS011;5256;48.728;9.140;2023-02-15T00:36:49;1.00;;;1.00;;
10418;SDS011;5256;48.728;9.140;2023-02-15T00:39:16;1.00;;;1.00;;
10418;SDS011;5256;48.728;9.140;2023-02-15T00:41:42;1.00;;;1.00;;
10418;SDS011;5256;48.728;9.140;2023-02-15T00:44:08;0.90;;;0.90;;
10418;SDS011;5256;48.728;9.140;2023-02-15T00:46:34;1.00;;;1.00;;
10418;SDS011;5256;48.728;9.140;2023-02-15T00:48:59;0.90;;;0.90;;
10418;SDS011;5256;48.728;9.140;2023-02-15T00:51:25;1.00;;;1.00;;
10418;SDS011;5256;48.728;9.140;2023-02-15T00:53:51;1.00;;;1.00;;
10418;SDS011;5256;48.728;9.140;2023-02-15T00:56:17;1.00;;;1.00;;
10418;SDS011;5256;48.728;9.140;2023-02-15T00:58:42;1.10;;;1.10;;
10418;SDS011;5256;48.728;9.140;2023-02-15T01:01:09;1.00;;;1.00;;
10418;SDS011;5256;48.728;9.140;2023-02-15T01:03:37;1.10;;;1.10;;
10418;SDS011;5256;48.728;9.140;2023-02-15T01:06:03;1.00;;;1.00;;
10418;SDS011;5256;48.728;9.140;2023-02-15T01:08:29;1.00;;;1.00;;
10418;SDS011;5256;48.728;9.140;2023-02-15T01:10:55;1.07;;;1.07;;
10418;SDS011;5256;48.728;9.140;2023-02-15T01:13:21;1.00;;;1.00;;
10418;SDS011;5256;48.728;9.140;2023-02-15T01:15:52;1.00;;;1.00;;
10418;SDS011;5256;48.728;9.140;2023-02-15T01:18:19;1.00;;;1.00;;
10418;SDS011;5256;48.728;9.140;2023-02-15T01:20:45;1.00;;;1.00;;
10418;SDS011;5256;48.728;9.140;2023-02-15T01:23:12;1.00;;;1.00;;
10418;SDS011;5256;48.728;9.140;2023-02-15T01:25:37;1.00;;;1.00;;
10418;SDS011;5256;48.728;9.140;2023-02-15T01:28:03;1.20;;;1.20;;
10418;SDS011;5256;48.728;9.140;2023-02-15T01:30:29;1.00;;;1.00;;
10418;SDS011;5256;48.728;9.140;2023-02-15T01:32:55;1.10;;;1.10;;
10418;SDS011;5256;48.728;9.140;2023-02-15T01:35:21;1.10;;;1.10;;
10418;SDS011;5256;48.728;9.140;2023-02-15T01:37:46;1.00;;;1.00;;
10418;SDS011;5256;48.728;9.140;2023-02-15T01:40:12;1.00;;;1.00;;
10418;SDS011;5256;48.728;9.140;2023-02-15T01:42:40;1.00;;;1.00;;
10418;SDS011;5256;48.728;9.140;2023-02-15T01:50:39;1.00;;;1.00;;
10418;SDS011;5256;48.728;9.140;2023-02-15T01:53:15;1.00;;;1.00;;
10418;SDS011;5256;48.728;9.140;2023-02-15T01:55:52;1.10;;;1.10;;
10418;SDS011;5256;48.728;9.140;2023-02-15T01:58:27;1.10;;;1.10;;
10418;SDS011;5256;48.728;9.140;2023-02-15T02:00:54;1.10;;;1.10;;
10418;SDS011;5256;48.728;9.140;2023-02-15T02:03:36;1.00;;;1.00;;
10418;SDS011;5256;48.728;9.140;2023-02-15T02:06:08;1.00;;;1.00;;
10418;SDS011;5256;48.728;9.140;2023-02-15T02:08:35;1.07;;;1.07;;
10418;SDS011;5256;48.728;9.140;2023-02-15T02:11:00;0.93;;;0.93;;
10418;SDS011;5256;48.728;9.140;2023-02-15T02:13:26;1.10;;;1.10;;
10418;SDS011;5256;48.728;9.140;2023-02-15T02:15:56;1.07;;;1.07;;
10418;SDS011;5256;48.728;9.140;2023-02-15T02:21:40;1.20;;;1.20;;
10418;SDS011;5256;48.728;9.140;2023-02-15T02:24:30;1.10;;;1.10;;
10418;SDS011;5256;48.728;9.140;2023-02-15T02:30:13;1.10;;;1.10;;
10418;SDS011;5256;48.728;9.140;2023-02-15T02:35:39;1.20;;;1.20;;
10418;SDS011;5256;48.728;9.140;2023-02-15T02:41:24;1.10;;;1.10;;
10418;SDS011;5256;48.728;9.140;2023-02-15T02:44:00;1.10;;;1.10;;
10418;SDS011;5256;48.728;9.140;2023-02-15T02:47:08;1.10;;;1.10;;
10418;SDS011;5256;48.728;9.140;2023-02-15T02:49:42;1.00;;;1.00;;
10418;SDS011;5256;48.728;9.140;2023-02-15T02:54:59;1.00;;;1.00;;
10418;SDS011;5256;48.728;9.140;2023-02-15T02:57:27;1.10;;;1.10;;
10418;SDS011;5256;48.728;9.140;2023-02-15T02:59:54;1.10;;;1.10;;
10418;SDS011;5256;48.728;9.140;2023-02-15T03:02:27;1.03;;;1.03;;
10418;SDS011;5256;48.728;9.140;2023-02-15T03:05:00;0.90;;;0.90;;
10418;SDS011;5256;48.728;9.140;2023-02-15T03:07:28;1.00;;;1.00;;
10418;SDS011;5256;48.728;9.140;2023-02-15T03:09:59;1.03;;;1.03;;
10418;SDS011;5256;48.728;9.140;2023-02-15T03:12:28;1.10;;;1.10;;
10418;SDS011;5256;48.728;9.140;2023-02-15T03:14:59;1.10;;;1.10;;
10418;SDS011;5256;48.728;9.140;2023-02-15T03:17:32;1.10;;;1.10;;
10418;SDS011;5256;48.728;9.140;2023-02-15T03:20:06;1.03;;;1.03;;
10418;SDS011;5256;48.728;9.140;2023-02-15T03:22:42;1.00;;;1.00;;
10418;SDS011;5256;48.728;9.140;2023-02-15T03:25:23;1.00;;;1.00;;
10418;SDS011;5256;48.728;9.140;2023-02-15T03:27:54;1.10;;;1.10;;
10418;SDS011;5256;48.728;9.140;2023-02-15T03:30:24;1.00;;;1.00;;
10418;SDS011;5256;48.728;9.140;2023-02-15T03:32:50;1.00;;;1.00;;
10418;SDS011;5256;48.728;9.140;2023-02-15T03:35:18;1.10;;;1.10;;
10418;SDS011;5256;48.728;9.140;2023-02-15T03:37:48;0.90;;;0.90;;
10418;SDS011;5256;48.728;9.140;2023-02-15T03:40:23;1.00;;;1.00;;
10418;SDS011;5256;48.728;9.140;2023-02-15T03:43:21;1.10;;;1.10;;
10418;SDS011;5256;48.728;9.140;2023-02-15T03:46:11;1.10;;;1.10;;
10418;SDS011;5256;48.728;9.140;2023-02-15T03:49:00;1.20;;;1.20;;
10418;SDS011;5256;48.728;9.140;2023-02-15T03:51:34;1.10;;;1.10;;
10418;SDS011;5256;48.728;9.140;2023-02-15T03:57:03;1.20;;;1.20;;
10418;SDS011;5256;48.728;9.140;2023-02-15T03:59:48;1.10;;;1.10;;
10418;SDS011;5256;48.728;9.140;2023-02-15T04:02:35;1.07;;;1.07;;
10418;SDS011;5256;48.728;9.140;2023-02-15T04:05:09;1.10;;;1.10;;
10418;SDS011;5256;48.728;9.140;2023-02-15T04:07:34;1.07;;;1.07;;
10418;SDS011;5256;48.728;9.140;2023-02-15T04:10:00;1.00;;;1.00;;
10418;SDS011;5256;48.728;9.140;2023-02-15T04:12:44;1.00;;;1.00;;
10418;SDS011;5256;48.728;9.140;2023-02-15T04:15:11;1.00;;;1.00;;
10418;SDS011;5256;48.728;9.140;2023-02-15T04:17:56;1.10;;;1.10;;
10418;SDS011;5256;48.728;9.140;2023-02-15T04:20:21;1.00;;;1.00;;
10418;SDS011;5256;48.728;9.140;2023-02-15T04:23:06;1.20;;;1.20;;
10418;SDS011;5256;48.728;9.140;2023-02-15T04:25:51;1.10;;;1.10;;
10418;SDS011;5256;48.728;9.140;2023-02-15T04:28:16;1.07;;;1.07;;
10418;SDS011;5256;48.728;9.140;2023-02-15T04:30:42;1.10;;;1.10;;
10418;SDS011;5256;48.728;9.140;2023-02-15T04:33:07;0.90;;;0.90;;
10418;SDS011;5256;48.728;9.140;2023-02-15T04:35:33;1.10;;;1.10;;
10418;SDS011;5256;48.728;9.140;2023-02-15T04:37:58;1.10;;;1.10;;
10418;SDS011;5256;48.728;9.140;2023-02-15T04:40:25;1.10;;;1.10;;
10418;SDS011;5256;48.728;9.140;2023-02-15T04:42:50;1.00;;;1.00;;
10418;SDS011;5256;48.728;9.140;2023-02-15T04:45:16;1.00;;;1.00;;
10418;SDS011;5256;48.728;9.140;2023-02-15T04:47:42;1.10;;;1.10;;
10418;SDS011;5256;48.728;9.140;2023-02-15T04:50:08;1.10;;;1.10;;
10418;SDS011;5256;48.728;9.140;2023-02-15T04:52:34;1.10;;;1.10;;
10418;SDS011;5256;48.728;9.140;2023-02-15T04:55:01;1.03;;;1.03;;
10418;SDS011;5256;48.728;9.140;2023-02-15T04:57:26;1.00;;;1.00;;
10418;SDS011;5256;48.728;9.140;2023-02-15T04:59:52;0.97;;;0.97;;
10418;SDS011;5256;48.728;9.140;2023-02-15T05:02:17;1.10;;;1.10;;
10418;SDS011;5256;48.728;9.140;2023-02-15T05:04:43;1.10;;;1.10;;
10418;SDS011;5256;48.728;9.140;2023-02-15T05:07:09;1.00;;;1.00;;
10418;SDS011;5256;48.728;9.140;2023-02-15T05:09:34;1.10;;;1.10;;
10418;SDS011;5256;48.728;9.140;2023-02-15T05:12:00;1.10;;;1.10;;
10418;SDS011;5256;48.728;9.140;2023-02-15T05:14:25;1.10;;;1.10;;
10418;SDS011;5256;48.728;9.140;2023-02-15T05:16:51;1.10;;;1.10;;
10418;SDS011;5256;48.728;9.140;2023-02-15T05:19:18;1.20;;;1.20;;
10418;SDS011;5256;48.728;9.140;2023-02-15T05:21:44;1.10;;;1.10;;
10418;SDS011;5256;48.728;9.140;2023-02-15T05:24:10;1.30;;;1.30;;
10418;SDS011;5256;48.728;9.140;2023-02-15T05:26:54;1.00;;;1.00;;
10418;SDS011;5256;48.728;9.140;2023-02-15T05:29:38;1.10;;;1.10;;
10418;SDS011;5256;48.728;9.140;2023-02-15T05:32:03;1.20;;;1.20;;
10418;SDS011;5256;48.728;9.140;2023-02-15T05:34:29;1.10;;;1.10;;
10418;SDS011;5256;48.728;9.140;2023-02-15T05:36:55;1.00;;;1.00;;
10418;SDS011;5256;48.728;9.140;2023-02-15T05:39:20;1.10;;;1.10;;
10418;SDS011;5256;48.728;9.140;2023-02-15T05:41:46;1.03;;;1.03;;
10418;SDS011;5256;48.728;9.140;2023-02-15T05:44:12;1.00;;;1.00;;
10418;SDS011;5256;48.728;9.140;2023-02-15T05:46:37;1.10;;;1.10;;
10418;SDS011;5256;48.728;9.140;2023-02-15T05:49:03;1.10;;;1.10;;
10418;SDS011;5256;48.728;9.140;2023-02-15T05:51:28;1.10;;;1.10;;
10418;SDS011;5256;48.728;9.140;2023-02-15T05:53:54;1.10;;;1.10;;
10418;SDS011;5256;48.728;9.140;2023-02-15T05:56:20;1.10;;;1.10;;
10418;SDS011;5256;48.728;9.140;2023-02-15T05:58:45;1.00;;;1.00;;
10418;SDS011;5256;48.728;9.140;2023-02-15T06:01:12;1.10;;;1.10;;
10418;SDS011;5256;48.728;9.140;2023-02-15T06:03:42;1.10;;;1.10;;
10418;SDS011;5256;48.728;9.140;2023-02-15T06:06:08;1.00;;;1.00;;
10418;SDS011;5256;48.728;9.140;2023-02-15T06:08:34;1.00;;;1.00;;
10418;SDS011;5256;48.728;9.140;2023-02-15T06:11:01;1.00;;;1.00;;
10418;SDS011;5256;48.728;9.140;2023-02-15T06:13:27;1.10;;;1.10;;
10418;SDS011;5256;48.728;9.140;2023-02-15T06:15:53;1.00;;;1.00;;
10418;SDS011;5256;48.728;9.140;2023-02-15T06:18:18;1.10;;;1.10;;
10418;SDS011;5256;48.728;9.140;2023-02-15T06:20:47;1.00;;;1.00;;
10418;SDS011;5256;48.728;9.140;2023-02-15T06:23:13;1.00;;;1.00;;
10418;SDS011;5256;48.728;9.140;2023-02-15T06:25:39;1.07;;;1.07;;
10418;SDS011;5256;48.728;9.140;2023-02-15T06:28:05;1.10;;;1.10;;
10418;SDS011;5256;48.728;9.140;2023-02-15T06:30:31;1.10;;;1.10;;
10418;SDS011;5256;48.728;9.140;2023-02-15T06:32:56;1.10;;;1.10;;
10418;SDS011;5256;48.728;9.140;2023-02-15T06:35:22;1.10;;;1.10;;
10418;SDS011;5256;48.728;9.140;2023-02-15T06:37:48;0.70;;;0.70;;
10418;SDS011;5256;48.728;9.140;2023-02-15T06:40:14;1.00;;;1.00;;
10418;SDS011;5256;48.728;9.140;2023-02-15T06:42:41;1.10;;;1.10;;
10418;SDS011;5256;48.728;9.140;2023-02-15T06:45:07;1.10;;;1.10;;
10418;SDS011;5256;48.728;9.140;2023-02-15T06:47:33;1.07;;;1.07;;
10418;SDS011;5256;48.728;9.140;2023-02-15T06:49:59;1.00;;;1.00;;
10418;SDS011;5256;48.728;9.140;2023-02-15T06:52:24;1.10;;;1.10;;
10418;SDS011;5256;48.728;9.140;2023-02-15T06:54:50;1.10;;;1.10;;
10418;SDS011;5256;48.728;9.140;2023-02-15T06:57:16;1.10;;;1.10;;
10418;SDS011;5256;48.728;9.140;2023-02-15T06:59:42;1.10;;;1.10;;
10418;SDS011;5256;48.728;9.140;2023-02-15T07:02:08;1.10;;;1.10;;
10418;SDS011;5256;48.728;9.140;2023-02-15T07:04:36;1.20;;;1.20;;
10418;SDS011;5256;48.728;9.140;2023-02-15T07:07:01;1.03;;;1.03;;
10418;SDS011;5256;48.728;9.140;2023-02-15T07:09:27;1.10;;;1.10;;
10418;SDS011;5256;48.728;9.140;2023-02-15T07:11:52;1.13;;;1.13;;
10418;SDS011;5256;48.728;9.140;2023-02-15T07:14:37;1.00;;;1.00;;
10418;SDS011;5256;48.728;9.140;2023-02-15T07:17:02;1.10;;;1.10;;
10418;SDS011;5256;48.728;9.140;2023-02-15T07:19:28;1.10;;;1.10;;
10418;SDS011;5256;48.728;9.140;2023-02-15T07:21:53;1.00;;;1.00;;
10418;SDS011;5256;48.728;9.140;2023-02-15T07:24:19;1.20;;;1.20;;
10418;SDS011;5256;48.728;9.140;2023-02-15T07:26:44;1.10;;;1.10;;
10418;SDS011;5256;48.728;9.140;2023-02-15T07:29:10;1.00;;;1.00;;
10418;SDS011;5256;48.728;9.140;2023-02-15T07:31:35;1.00;;;1.00;;
10418;SDS011;5256;48.728;9.140;2023-02-15T07:34:01;1.00;;;1.00;;
10418;SDS011;5256;48.728;9.140;2023-02-15T07:36:26;1.10;;;1.10;;
10418;SDS011;5256;48.728;9.140;2023-02-15T07:38:52;1.00;;;1.00;;
10418;SDS011;5256;48.728;9.140;2023-02-15T07:41:17;1.00;;;1.00;;
10418;SDS011;5256;48.728;9.140;2023-02-15T07:43:44;1.00;;;1.00;;
10418;SDS011;5256;48.728;9.140;2023-02-15T07:46:11;0.93;;;0.93;;
10418;SDS011;5256;48.728;9.140;2023-02-15T07:48:40;1.00;;;1.00;;
10418;SDS011;5256;48.728;9.140;2023-02-15T07:51:06;1.07;;;1.07;;
10418;SDS011;5256;48.728;9.140;2023-02-15T07:53:33;0.90;;;0.90;;
10418;SDS011;5256;48.728;9.140;2023-02-15T07:56:03;0.90;;;0.90;;
10418;SDS011;5256;48.728;9.140;2023-02-15T07:58:31;0.80;;;0.80;;
10418;SDS011;5256;48.728;9.140;2023-02-15T08:01:16;0.90;;;0.90;;
10418;SDS011;5256;48.728;9.140;2023-02-15T08:03:43;0.80;;;0.80;;
10418;SDS011;5256;48.728;9.140;2023-02-15T08:06:08;0.80;;;0.80;;
10418;SDS011;5256;48.728;9.140;2023-02-15T08:08:36;0.80;;;0.80;;
10418;SDS011;5256;48.728;9.140;2023-02-15T08:16:31;0.70;;;0.70;;
10418;SDS011;5256;48.728;9.140;2023-02-15T08:19:03;0.80;;;0.80;;
10418;SDS011;5256;48.728;9.140;2023-02-15T08:21:49;0.80;;;0.80;;
10418;SDS011;5256;48.728;9.140;2023-02-15T08:24:18;0.77;;;0.77;;
10418;SDS011;5256;48.728;9.140;2023-02-15T08:26:45;0.90;;;0.90;;
10418;SDS011;5256;48.728;9.140;2023-02-15T08:29:13;0.80;;;0.80;;
10418;SDS011;5256;48.728;9.140;2023-02-15T08:31:40;0.80;;;0.80;;
10418;SDS011;5256;48.728;9.140;2023-02-15T08:34:06;0.80;;;0.80;;
10418;SDS011;5256;48.728;9.140;2023-02-15T08:36:36;0.80;;;0.80;;
10418;SDS011;5256;48.728;9.140;2023-02-15T08:39:03;0.73;;;0.73;;
10418;SDS011;5256;48.728;9.140;2023-02-15T08:41:31;0.77;;;0.77;;
10418;SDS011;5256;48.728;9.140;2023-02-15T08:44:00;0.80;;;0.80;;
10418;SDS011;5256;48.728;9.140;2023-02-15T08:46:28;0.70;;;0.70;;
10418;SDS011;5256;48.728;9.140;2023-02-15T08:48:55;0.70;;;0.70;;
10418;SDS011;5256;48.728;9.140;2023-02-15T08:51:22;0.70;;;0.70;;
10418;SDS011;5256;48.728;9.140;2023-02-15T08:53:53;0.70;;;0.70;;
10418;SDS011;5256;48.728;9.140;2023-02-15T08:56:21;0.70;;;0.70;;
10418;SDS011;5256;48.728;9.140;2023-02-15T08:58:48;0.70;;;0.70;;
10418;SDS011;5256;48.728;9.140;2023-02-15T09:01:15;0.70;;;0.70;;
10418;SDS011;5256;48.728;9.140;2023-02-15T09:03:43;0.70;;;0.70;;
10418;SDS011;5256;48.728;9.140;2023-02-15T09:06:10;0.60;;;0.60;;
10418;SDS011;5256;48.728;9.140;2023-02-15T09:08:36;0.60;;;0.60;;
10418;SDS011;5256;48.728;9.140;2023-02-15T09:11:06;0.60;;;0.60;;
10418;SDS011;5256;48.728;9.140;2023-02-15T09:13:31;0.70;;;0.70;;
10418;SDS011;5256;48.728;9.140;2023-02-15T09:16:02;0.70;;;0.70;;
10418;SDS011;5256;48.728;9.140;2023-02-15T09:18:29;0.70;;;0.70;;
10418;SDS011;5256;48.728;9.140;2023-02-15T09:20:56;0.70;;;0.70;;
10418;SDS011;5256;48.728;9.140;2023-02-15T09:23:28;0.50;;;0.50;;
10418;SDS011;5256;48.728;9.140;2023-02-15T09:25:53;0.70;;;0.70;;
10418;SDS011;5256;48.728;9.140;2023-02-15T09:28:19;0.60;;;0.60;;
10418;SDS011;5256;48.728;9.140;2023-02-15T09:30:44;0.60;;;0.60;;
10418;SDS011;5256;48.728;9.140;2023-02-15T09:33:10;0.63;;;0.63;;
10418;SDS011;5256;48.728;9.140;2023-02-15T09:35:36;0.70;;;0.70;;
10418;SDS011;5256;48.728;9.140;2023-02-15T09:38:01;0.60;;;0.60;;
10418;SDS011;5256;48.728;9.140;2023-02-15T09:40:27;0.60;;;0.60;;
10418;SDS011;5256;48.728;9.140;2023-02-15T09:43:02;0.63;;;0.63;;
10418;SDS011;5256;48.728;9.140;2023-02-15T09:48:38;0.60;;;0.60;;
10418;SDS011;5256;48.728;9.140;2023-02-15T09:51:18;0.50;;;0.50;;
10418;SDS011;5256;48.728;9.140;2023-02-15T09:54:04;0.60;;;0.60;;
10418;SDS011;5256;48.728;9.140;2023-02-15T09:57:48;0.60;;;0.60;;
10418;SDS011;5256;48.728;9.140;2023-02-15T10:00:06;0.60;;;0.60;;
10418;SDS011;5256;48.728;9.140;2023-02-15T10:02:53;0.50;;;0.50;;
10418;SDS011;5256;48.728;9.140;2023-02-15T10:08:27;0.60;;;0.60;;
10418;SDS011;5256;48.728;9.140;2023-02-15T10:11:16;0.53;;;0.53;;
10418;SDS011;5256;48.728;9.140;2023-02-15T10:14:20;0.50;;;0.50;;
10418;SDS011;5256;48.728;9.140;2023-02-15T10:17:11;0.60;;;0.60;;
10418;SDS011;5256;48.728;9.140;2023-02-15T10:28:31;0.50;;;0.50;;
10418;SDS011;5256;48.728;9.140;2023-02-15T10:31:11;0.50;;;0.50;;
10418;SDS011;5256;48.728;9.140;2023-02-15T10:34:05;0.47;;;0.47;;
10418;SDS011;5256;48.728;9.140;2023-02-15T10:36:46;0.50;;;0.50;;
10418;SDS011;5256;48.728;9.140;2023-02-15T10:56:20;0.40;;;0.40;;
10418;SDS011;5256;48.728;9.140;2023-02-15T11:04:39;0.43;;;0.43;;
10418;SDS011;5256;48.728;9.140;2023-02-15T11:09:49;0.40;;;0.40;;
10418;SDS011;5256;48.728;9.140;2023-02-15T11:12:21;0.53;;;0.53;;
10418;SDS011;5256;48.728;9.140;2023-02-15T11:17:46;0.53;;;0.53;;
10418;SDS011;5256;48.728;9.140;2023-02-15T11:23:16;0.40;;;0.40;;
10418;SDS011;5256;48.728;9.140;2023-02-15T11:25:44;0.40;;;0.40;;
10418;SDS011;5256;48.728;9.140;2023-02-15T11:28:34;0.47;;;0.47;;
10418;SDS011;5256;48.728;9.140;2023-02-15T11:31:14;0.50;;;0.50;;
10418;SDS011;5256;48.728;9.140;2023-02-15T11:33:43;0.50;;;0.50;;
10418;SDS011;5256;48.728;9.140;2023-02-15T11:36:15;0.40;;;0.40;;
10418;SDS011;5256;48.728;9.140;2023-02-15T11:38:44;0.40;;;0.40;;
10418;SDS011;5256;48.728;9.140;2023-02-15T11:41:20;0.40;;;0.40;;
10418;SDS011;5256;48.728;9.140;2023-02-15T11:43:52;0.40;;;0.40;;
10418;SDS011;5256;48.728;9.140;2023-02-15T11:46:25;0.47;;;0.47;;
10418;SDS011;5256;48.728;9.140;2023-02-15T11:48:51;0.40;;;0.40;;
10418;SDS011;5256;48.728;9.140;2023-02-15T11:51:18;0.47;;;0.47;;
10418;SDS011;5256;48.728;9.140;2023-02-15T11:53:45;0.40;;;0.40;;
10418;SDS011;5256;48.728;9.140;2023-02-15T11:56:15;0.43;;;0.43;;
10418;SDS011;5256;48.728;9.140;2023-02-15T11:58:44;0.40;;;0.40;;
10418;SDS011;5256;48.728;9.140;2023-02-15T12:01:32;0.50;;;0.50;;
10418;SDS011;5256;48.728;9.140;2023-02-15T12:06:35;0.40;;;0.40;;
10418;SDS011;5256;48.728;9.140;2023-02-15T12:12:19;0.40;;;0.40;;
10418;SDS011;5256;48.728;9.140;2023-02-15T12:14:49;0.30;;;0.30;;
10418;SDS011;5256;48.728;9.140;2023-02-15T12:17:20;0.40;;;0.40;;
10418;SDS011;5256;48.728;9.140;2023-02-15T12:19:47;0.40;;;0.40;;
10418;SDS011;5256;48.728;9.140;2023-02-15T12:22:38;0.50;;;0.50;;
10418;SDS011;5256;48.728;9.140;2023-02-15T12:25:11;0.40;;;0.40;;
10418;SDS011;5256;48.728;9.140;2023-02-15T12:27:54;0.60;;;0.60;;
10418;SDS011;5256;48.728;9.140;2023-02-15T12:33:04;0.40;;;0.40;;
10418;SDS011;5256;48.728;9.140;2023-02-15T12:35:39;0.40;;;0.40;;
10418;SDS011;5256;48.728;9.140;2023-02-15T12:40:34;0.50;;;0.50;;
10418;SDS011;5256;48.728;9.140;2023-02-15T12:43:00;0.40;;;0.40;;
10418;SDS011;5256;48.728;9.140;2023-02-15T12:45:33;0.60;;;0.60;;
10418;SDS011;5256;48.728;9.140;2023-02-15T12:48:13;0.50;;;0.50;;
10418;SDS011;5256;48.728;9.140;2023-02-15T12:50:41;0.50;;;0.50;;
10418;SDS011;5256;48.728;9.140;2023-02-15T12:53:18;0.40;;;0.40;;
10418;SDS011;5256;48.728;9.140;2023-02-15T12:55:53;0.40;;;0.40;;
10418;SDS011;5256;48.728;9.140;2023-02-15T12:58:24;0.50;;;0.50;;
10418;SDS011;5256;48.728;9.140;2023-02-15T13:01:01;0.40;;;0.40;;
10418;SDS011;5256;48.728;9.140;2023-02-15T13:03:29;0.40;;;0.40;;
10418;SDS011;5256;48.728;9.140;2023-02-15T13:05:55;0.57;;;0.57;;
10418;SDS011;5256;48.728;9.140;2023-02-15T13:11:03;0.40;;;0.40;;
10418;SDS011;5256;48.728;9.140;2023-02-15T13:13:36;0.40;;;0.40;;
10418;SDS011;5256;48.728;9.140;2023-02-15T13:16:15;0.50;;;0.50;;
10418;SDS011;5256;48.728;9.140;2023-02-15T13:18:45;0.50;;;0.50;;
10418;SDS011;5256;48.728;9.140;2023-02-15T13:21:17;0.50;;;0.50;;
10418;SDS011;5256;48.728;9.140;2023-02-15T13:23:57;0.40;;;0.40;;
10418;SDS011;5256;48.728;9.140;2023-02-15T13:26:29;0.40;;;0.40;;
10418;SDS011;5256;48.728;9.140;2023-02-15T13:28:58;0.40;;;0.40;;
10418;SDS011;5256;48.728;9.140;2023-02-15T13:31:30;0.40;;;0.40;;
10418;SDS011;5256;48.728;9.140;2023-02-15T13:34:09;0.50;;;0.50;;
10418;SDS011;5256;48.728;9.140;2023-02-15T13:44:31;0.40;;;0.40;;
10418;SDS011;5256;48.728;9.140;2023-02-15T13:55:23;0.50;;;0.50;;
10418;SDS011;5256;48.728;9.140;2023-02-15T14:06:53;0.53;;;0.53;;
10418;SDS011;5256;48.728;9.140;2023-02-15T14:12:58;0.40;;;0.40;;
10418;SDS011;5256;48.728;9.140;2023-02-15T14:18:27;0.67;;;0.67;;
10418;SDS011;5256;48.728;9.140;2023-02-15T14:21:21;0.53;;;0.53;;
10418;SDS011;5256;48.728;9.140;2023-02-15T14:32:33;0.40;;;0.40;;
10418;SDS011;5256;48.728;9.140;2023-02-15T14:35:12;0.37;;;0.37;;
10418;SDS011;5256;48.728;9.140;2023-02-15T14:38:04;0.40;;;0.40;;
10418;SDS011;5256;48.728;9.140;2023-02-15T14:48:36;0.40;;;0.40;;
10418;SDS011;5256;48.728;9.140;2023-02-15T14:51:25;0.30;;;0.30;;
10418;SDS011;5256;48.728;9.140;2023-02-15T14:54:08;0.40;;;0.40;;
10418;SDS011;5256;48.728;9.140;2023-02-15T14:56:34;0.30;;;0.30;;
10418;SDS011;5256;48.728;9.140;2023-02-15T14:59:16;0.40;;;0.40;;
10418;SDS011;5256;48.728;9.140;2023-02-15T15:05:01;0.47;;;0.47;;
10418;SDS011;5256;48.728;9.140;2023-02-15T15:07:50;0.40;;;0.40;;
10418;SDS011;5256;48.728;9.140;2023-02-15T15:18:42;0.40;;;0.40;;
10418;SDS011;5256;48.728;9.140;2023-02-15T15:21:03;0.70;;;0.70;;
10418;SDS011;5256;48.728;9.140;2023-02-15T15:26:31;0.50;;;0.50;;
10418;SDS011;5256;48.728;9.140;2023-02-15T15:29:01;0.40;;;0.40;;
10418;SDS011;5256;48.728;9.140;2023-02-15T15:40:07;0.40;;;0.40;;
10418;SDS011;5256;48.728;9.140;2023-02-15T15:48:29;0.40;;;0.40;;
10418;SDS011;5256;48.728;9.140;2023-02-15T15:51:10;0.40;;;0.40;;
10418;SDS011;5256;48.728;9.140;2023-02-15T15:53:42;0.50;;;0.50;;
10418;SDS011;5256;48.728;9.140;2023-02-15T15:56:15;0.50;;;0.50;;
10418;SDS011;5256;48.728;9.140;2023-02-15T15:59:28;0.40;;;0.40;;
10418;SDS011;5256;48.728;9.140;2023-02-15T16:01:40;0.40;;;0.40;;
10418;SDS011;5256;48.728;9.140;2023-02-15T16:04:12;0.40;;;0.40;;
10418;SDS011;5256;48.728;9.140;2023-02-15T16:06:39;0.40;;;0.40;;
10418;SDS011;5256;48.728;9.140;2023-02-15T16:09:09;0.50;;;0.50;;
10418;SDS011;5256;48.728;9.140;2023-02-15T16:11:40;0.57;;;0.57;;
10418;SDS011;5256;48.728;9.140;2023-02-15T16:14:13;0.47;;;0.47;;
10418;SDS011;5256;48.728;9.140;2023-02-15T16:16:41;0.43;;;0.43;;
10418;SDS011;5256;48.728;9.140;2023-02-15T16:19:48;0.40;;;0.40;;
10418;SDS011;5256;48.728;9.140;2023-02-15T16:22:12;0.40;;;0.40;;
10418;SDS011;5256;48.728;9.140;2023-02-15T16:27:31;0.40;;;0.40;;
10418;SDS011;5256;48.728;9.140;2023-02-15T16:30:16;0.50;;;0.50;;
10418;SDS011;5256;48.728;9.140;2023-02-15T16:32:44;0.40;;;0.40;;
10418;SDS011;5256;48.728;9.140;2023-02-15T16:35:21;0.40;;;0.40;;
10418;SDS011;5256;48.728;9.140;2023-02-15T16:37:48;0.40;;;0.40;;
10418;SDS011;5256;48.728;9.140;2023-02-15T16:42:48;0.40;;;0.40;;
10418;SDS011;5256;48.728;9.140;2023-02-15T16:45:16;0.40;;;0.40;;
10418;SDS011;5256;48.728;9.140;2023-02-15T16:47:46;0.50;;;0.50;;
10418;SDS011;5256;48.728;9.140;2023-02-15T16:50:31;0.50;;;0.50;;
10418;SDS011;5256;48.728;9.140;2023-02-15T16:52:59;0.40;;;0.40;;
10418;SDS011;5256;48.728;9.140;2023-02-15T16:55:28;0.60;;;0.60;;
10418;SDS011;5256;48.728;9.140;2023-02-15T16:57:57;0.40;;;0.40;;
10418;SDS011;5256;48.728;9.140;2023-02-15T17:00:28;0.60;;;0.60;;
10418;SDS011;5256;48.728;9.140;2023-02-15T17:03:00;0.50;;;0.50;;
10418;SDS011;5256;48.728;9.140;2023-02-15T17:08:53;0.60;;;0.60;;
10418;SDS011;5256;48.728;9.140;2023-02-15T17:11:36;0.57;;;0.57;;
10418;SDS011;5256;48.728;9.140;2023-02-15T17:19:25;0.50;;;0.50;;
10418;SDS011;5256;48.728;9.140;2023-02-15T17:21:55;0.60;;;0.60;;
10418;SDS011;5256;48.728;9.140;2023-02-15T17:27:05;0.50;;;0.50;;
10418;SDS011;5256;48.728;9.140;2023-02-15T17:29:41;0.50;;;0.50;;
10418;SDS011;5256;48.728;9.140;2023-02-15T17:32:24;0.50;;;0.50;;
10418;SDS011;5256;48.728;9.140;2023-02-15T17:40:02;0.60;;;0.60;;
10418;SDS011;5256;48.728;9.140;2023-02-15T17:42:42;0.60;;;0.60;;
10418;SDS011;5256;48.728;9.140;2023-02-15T17:45:08;0.63;;;0.63;;
10418;SDS011;5256;48.728;9.140;2023-02-15T17:47:33;0.60;;;0.60;;
10418;SDS011;5256;48.728;9.140;2023-02-15T17:49:59;0.60;;;0.60;;
10418;SDS011;5256;48.728;9.140;2023-02-15T17:52:28;0.60;;;0.60;;
10418;SDS011;5256;48.728;9.140;2023-02-15T17:54:55;0.87;;;0.87;;
10418;SDS011;5256;48.728;9.140;2023-02-15T17:57:39;0.57;;;0.57;;
10418;SDS011;5256;48.728;9.140;2023-02-15T18:00:05;0.60;;;0.60;;
10418;SDS011;5256;48.728;9.140;2023-02-15T18:02:50;0.60;;;0.60;;
10418;SDS011;5256;48.728;9.140;2023-02-15T18:05:34;0.60;;;0.60;;
10418;SDS011;5256;48.728;9.140;2023-02-15T18:08:19;0.53;;;0.53;;
10418;SDS011;5256;48.728;9.140;2023-02-15T18:11:11;0.60;;;0.60;;
10418;SDS011;5256;48.728;9.140;2023-02-15T18:13:55;0.70;;;0.70;;
10418;SDS011;5256;48.728;9.140;2023-02-15T18:16:25;0.60;;;0.60;;
10418;SDS011;5256;48.728;9.140;2023-02-15T18:18:53;0.70;;;0.70;;
10418;SDS011;5256;48.728;9.140;2023-02-15T18:21:19;0.60;;;0.60;;
10418;SDS011;5256;48.728;9.140;2023-02-15T18:23:44;0.60;;;0.60;;
10418;SDS011;5256;48.728;9.140;2023-02-15T18:26:12;0.60;;;0.60;;
10418;SDS011;5256;48.728;9.140;2023-02-15T18:28:43;0.70;;;0.70;;
10418;SDS011;5256;48.728;9.140;2023-02-15T18:31:09;0.63;;;0.63;;
10418;SDS011;5256;48.728;9.140;2023-02-15T18:33:46;0.60;;;0.60;;